Time;durP1;ratioP1;P1;durP2;ratioP2;P2;SDS_P1;SDS_P2;PMS_P1;PMS_P2;Temp;Humidity;BMP_temperature;BMP_pressure;BME280_temperature;BME280_humidity;BME280_pressure;Samples;Min_cycle;Max_cycle;Signal;HPM_P1;HPM_P2
2021/11/27 00:00:21;;;;;;;59.85;4.25;;;;;;;;;;4995853;28;20207;-65
2021/11/27 00:02:49;;;;;;;60.17;4.80;;;;;;;;;;4996115;28;20211;-65
2021/11/27 00:05:18;;;;;;;59.67;4.32;;;;;;;;;;4995931;28;20206;-66
2021/11/27 00:07:45;;;;;;;61.45;4.75;;;;;;;;;;4995613;28;20208;-65
2021/11/27 00:10:14;;;;;;;62.10;4.80;;;;;;;;;;4995865;28;20230;-66
2021/11/27 00:12:42;;;;;;;62.33;4.45;;;;;;;;;;4995703;28;20246;-66
2021/11/27 00:15:10;;;;;;;60.25;4.13;;;;;;;;;;4995816;28;20577;-65
2021/11/27 00:17:37;;;;;;;60.17;4.15;;;;;;;;;;4995384;28;20214;-65
2021/11/27 00:20:06;;;;;;;60.78;5.10;;;;;;;;;;4995776;28;20580;-64
2021/11/27 00:22:35;;;;;;;59.97;4.00;;;;;;;;;;4995627;28;20218;-65
2021/11/27 00:25:02;;;;;;;60.42;4.70;;;;;;;;;;4995474;28;20218;-65
2021/11/27 00:27:29;;;;;;;61.75;4.80;;;;;;;;;;4995103;28;20229;-65
2021/11/27 00:29:56;;;;;;;60.33;4.68;;;;;;;;;;4995514;28;20227;-66
2021/11/27 00:32:24;;;;;;;59.83;4.55;;;;;;;;;;4995346;28;20702;-66
2021/11/27 00:34:51;;;;;;;61.50;4.40;;;;;;;;;;4995211;28;20706;-65
2021/11/27 00:37:18;;;;;;;60.58;4.68;;;;;;;;;;4995137;28;20223;-66
2021/11/27 00:39:47;;;;;;;61.10;4.90;;;;;;;;;;4995071;28;20726;-65
2021/11/27 00:42:14;;;;;;;59.67;4.97;;;;;;;;;;4995164;28;20690;-66
2021/11/27 00:44:41;;;;;;;60.33;4.13;;;;;;;;;;4995236;28;20210;-65
2021/11/27 00:47:10;;;;;;;60.10;4.53;;;;;;;;;;4995223;28;20204;-65
2021/11/27 00:49:37;;;;;;;59.88;4.38;;;;;;;;;;4995125;28;20236;-65
2021/11/27 00:52:05;;;;;;;60.10;4.80;;;;;;;;;;4994940;28;20208;-66
2021/11/27 00:54:32;;;;;;;59.78;4.45;;;;;;;;;;4994870;28;20208;-65
2021/11/27 00:57:00;;;;;;;60.50;4.45;;;;;;;;;;4994912;28;20322;-66
2021/11/27 00:59:27;;;;;;;62.92;4.75;;;;;;;;;;4994766;28;20235;-66
2021/11/27 01:01:54;;;;;;;60.40;4.60;;;;;;;;;;4994958;28;20207;-65
2021/11/27 01:04:23;;;;;;;59.95;5.35;;;;;;;;;;4994989;28;20221;-66
2021/11/27 01:06:50;;;;;;;60.60;4.38;;;;;;;;;;4994606;28;20684;-65
2021/11/27 01:09:17;;;;;;;59.85;4.80;;;;;;;;;;4994352;28;20306;-66
2021/11/27 01:11:47;;;;;;;59.88;4.53;;;;;;;;;;4994602;28;20215;-65
2021/11/27 01:14:17;;;;;;;61.53;4.40;;;;;;;;;;4994603;28;20684;-66
2021/11/27 01:16:46;;;;;;;58.65;3.40;;;;;;;;;;4994551;28;20228;-65
2021/11/27 01:19:14;;;;;;;59.08;3.60;;;;;;;;;;4994253;28;20228;-65
2021/11/27 01:21:42;;;;;;;60.47;4.65;;;;;;;;;;4994654;28;20581;-65
2021/11/27 01:24:10;;;;;;;60.03;4.55;;;;;;;;;;4994443;28;20212;-65
2021/11/27 01:26:37;;;;;;;59.28;4.10;;;;;;;;;;4994267;28;20262;-65
2021/11/27 01:29:05;;;;;;;59.92;4.80;;;;;;;;;;4994092;28;20234;-65
2021/11/27 01:31:34;;;;;;;61.17;4.30;;;;;;;;;;4994319;28;20208;-65
2021/11/27 01:34:01;;;;;;;60.38;4.60;;;;;;;;;;4994169;28;20592;-65
2021/11/27 01:36:28;;;;;;;61.20;4.82;;;;;;;;;;4994309;28;20234;-65
2021/11/27 01:38:55;;;;;;;59.53;4.38;;;;;;;;;;4993999;28;20234;-65
2021/11/27 01:41:22;;;;;;;59.97;4.60;;;;;;;;;;4994138;28;20204;-66
2021/11/27 01:43:51;;;;;;;61.60;4.82;;;;;;;;;;4993937;28;20204;-65
2021/11/27 01:46:19;;;;;;;61.70;4.90;;;;;;;;;;4994392;28;20675;-65
2021/11/27 01:48:47;;;;;;;62.78;5.30;;;;;;;;;;4993564;28;20721;-65
2021/11/27 01:51:16;;;;;;;61.33;4.57;;;;;;;;;;4994097;28;20204;-65
2021/11/27 01:53:52;;;;;;;61.22;5.00;;;;;;;;;;4993979;28;20203;-65
2021/11/27 01:56:20;;;;;;;60.15;4.65;;;;;;;;;;4993635;28;20229;-66
2021/11/27 01:58:48;;;;;;;61.90;4.95;;;;;;;;;;4993363;28;20232;-65
2021/11/27 02:01:16;;;;;;;60.17;4.30;;;;;;;;;;4993650;28;20212;-65
2021/11/27 02:03:44;;;;;;;60.85;4.97;;;;;;;;;;4993510;28;20672;-65
2021/11/27 02:06:13;;;;;;;60.55;4.10;;;;;;;;;;4993372;28;20199;-65
2021/11/27 02:08:40;;;;;;;61.05;5.28;;;;;;;;;;4993243;28;20722;-65
2021/11/27 02:11:08;;;;;;;60.13;4.75;;;;;;;;;;4993567;28;20238;-65
2021/11/27 02:13:36;;;;;;;60.78;5.10;;;;;;;;;;4993489;28;20589;-65
2021/11/27 02:16:03;;;;;;;61.22;5.25;;;;;;;;;;4993501;28;20235;-65
2021/11/27 02:18:30;;;;;;;62.90;5.60;;;;;;;;;;4993031;28;20227;-65
2021/11/27 02:21:00;;;;;;;61.20;5.35;;;;;;;;;;4993323;28;20210;-65
2021/11/27 02:23:29;;;;;;;61.20;4.70;;;;;;;;;;4993338;28;20207;-65
2021/11/27 02:25:56;;;;;;;59.47;4.07;;;;;;;;;;4993153;28;20208;-65
2021/11/27 02:28:23;;;;;;;60.92;5.53;;;;;;;;;;4992898;28;20223;-65
2021/11/27 02:30:50;;;;;;;60.58;5.03;;;;;;;;;;4993461;28;20216;-65
2021/11/27 02:33:17;;;;;;;61.28;4.72;;;;;;;;;;4993183;28;20647;-66
2021/11/27 02:35:45;;;;;;;59.00;3.90;;;;;;;;;;4993070;28;20214;-66
2021/11/27 02:38:13;;;;;;;60.40;5.22;;;;;;;;;;4992762;28;20224;-66
2021/11/27 02:40:42;;;;;;;60.83;5.05;;;;;;;;;;4992897;28;20314;-65
2021/11/27 02:43:09;;;;;;;60.08;4.35;;;;;;;;;;4993186;28;20215;-65
2021/11/27 02:45:36;;;;;;;60.35;5.20;;;;;;;;;;4993086;28;20212;-65
2021/11/27 02:48:03;;;;;;;60.20;4.50;;;;;;;;;;4992746;28;20624;-66
2021/11/27 02:50:31;;;;;;;61.60;4.90;;;;;;;;;;4992918;28;20208;-66
2021/11/27 02:52:58;;;;;;;59.20;3.88;;;;;;;;;;4992813;28;20211;-65
2021/11/27 02:55:26;;;;;;;61.25;4.90;;;;;;;;;;4991454;28;20204;-65
2021/11/27 02:57:54;;;;;;;59.67;4.30;;;;;;;;;;4992428;28;20235;-65
2021/11/27 03:00:23;;;;;;;59.05;4.18;;;;;;;;;;4992748;28;20204;-65
2021/11/27 03:02:51;;;;;;;61.78;5.07;;;;;;;;;;4992650;28;20207;-65
2021/11/27 03:05:18;;;;;;;60.90;5.38;;;;;;;;;;4992502;28;20208;-65
2021/11/27 03:07:46;;;;;;;62.13;5.30;;;;;;;;;;4992421;28;20210;-65
2021/11/27 03:10:15;;;;;;;60.05;4.68;;;;;;;;;;4992601;28;20207;-65
2021/11/27 03:12:44;;;;;;;60.05;4.30;;;;;;;;;;4992492;28;20219;-66
2021/11/27 03:15:11;;;;;;;60.53;4.32;;;;;;;;;;4992415;28;20204;-66
2021/11/27 03:17:39;;;;;;;60.38;4.88;;;;;;;;;;4991188;28;20223;-66
2021/11/27 03:20:06;;;;;;;59.97;4.15;;;;;;;;;;4992655;28;20676;-66
2021/11/27 03:22:34;;;;;;;60.88;4.90;;;;;;;;;;4992324;28;20207;-66
2021/11/27 03:25:01;;;;;;;60.10;4.10;;;;;;;;;;4992574;28;20214;-66
2021/11/27 03:27:28;;;;;;;59.40;4.90;;;;;;;;;;4992161;28;20235;-66
2021/11/27 03:29:57;;;;;;;59.60;4.30;;;;;;;;;;4992371;28;20626;-66
2021/11/27 03:32:24;;;;;;;60.25;4.90;;;;;;;;;;4992257;28;20679;-65
2021/11/27 03:34:52;;;;;;;59.63;3.92;;;;;;;;;;4992576;28;20220;-66
2021/11/27 03:37:20;;;;;;;59.55;4.45;;;;;;;;;;4992045;28;20709;-66
2021/11/27 03:39:47;;;;;;;61.95;4.72;;;;;;;;;;4992334;28;20237;-66
2021/11/27 03:42:15;;;;;;;60.15;4.10;;;;;;;;;;4992287;28;20211;-66
2021/11/27 03:44:43;;;;;;;60.42;3.97;;;;;;;;;;4992088;28;20211;-65
2021/11/27 03:47:11;;;;;;;59.95;4.25;;;;;;;;;;4992150;28;20203;-66
2021/11/27 03:49:39;;;;;;;61.45;4.28;;;;;;;;;;4992431;28;20227;-66
2021/11/27 03:52:06;;;;;;;61.17;4.45;;;;;;;;;;4992257;28;20695;-66
2021/11/27 03:54:34;;;;;;;60.88;4.85;;;;;;;;;;4992140;28;20208;-66
2021/11/27 03:57:02;;;;;;;59.72;4.30;;;;;;;;;;4991862;28;20227;-66
2021/11/27 03:59:29;;;;;;;60.47;4.28;;;;;;;;;;4992048;28;20231;-66
2021/11/27 04:01:56;;;;;;;59.22;3.60;;;;;;;;;;4992241;28;20600;-66
2021/11/27 04:04:25;;;;;;;58.60;3.60;;;;;;;;;;4992224;28;20204;-66
2021/11/27 04:06:53;;;;;;;59.15;3.63;;;;;;;;;;4991988;28;20596;-65
2021/11/27 04:09:20;;;;;;;59.85;4.00;;;;;;;;;;4991792;28;20234;-66
2021/11/27 04:11:47;;;;;;;59.80;4.05;;;;;;;;;;4991782;28;20649;-66
2021/11/27 04:14:14;;;;;;;59.40;3.90;;;;;;;;;;4992245;28;20216;-66
2021/11/27 04:16:41;;;;;;;60.05;3.72;;;;;;;;;;4992016;28;20713;-66
2021/11/27 04:19:08;;;;;;;59.47;4.10;;;;;;;;;;4991717;28;20238;-66
2021/11/27 04:21:37;;;;;;;59.40;3.90;;;;;;;;;;4992001;28;20212;-66
2021/11/27 04:24:04;;;;;;;58.28;3.75;;;;;;;;;;4992420;28;20203;-66
2021/11/27 04:26:31;;;;;;;59.15;4.10;;;;;;;;;;4991819;28;20204;-66
2021/11/27 04:28:58;;;;;;;60.50;4.57;;;;;;;;;;4994353;28;20223;-66
2021/11/27 04:31:26;;;;;;;61.17;5.50;;;;;;;;;;4995768;28;20219;-65
2021/11/27 04:33:53;;;;;;;59.75;3.55;;;;;;;;;;4995439;28;20679;-66
2021/11/27 04:36:21;;;;;;;58.88;3.55;;;;;;;;;;4995165;28;20214;-66
2021/11/27 04:38:49;;;;;;;59.75;3.55;;;;;;;;;;4994842;28;20250;-66
2021/11/27 04:41:17;;;;;;;59.55;3.45;;;;;;;;;;4995508;28;20315;-65
2021/11/27 04:43:44;;;;;;;59.03;3.45;;;;;;;;;;4995372;28;20208;-66
2021/11/27 04:46:11;;;;;;;59.78;3.05;;;;;;;;;;4995237;28;20645;-66
2021/11/27 04:48:38;;;;;;;59.65;3.33;;;;;;;;;;4995010;28;20234;-66
2021/11/27 04:51:05;;;;;;;58.03;2.70;;;;;;;;;;4995049;28;20214;-66
2021/11/27 04:53:32;;;;;;;59.78;3.10;;;;;;;;;;4994971;28;20203;-66
2021/11/27 04:56:01;;;;;;;58.10;3.20;;;;;;;;;;4995105;28;20219;-66
2021/11/27 04:58:29;;;;;;;58.58;3.45;;;;;;;;;;4994612;28;20309;-66
2021/11/27 05:00:56;;;;;;;59.97;3.13;;;;;;;;;;4995080;28;20207;-65
2021/11/27 05:03:24;;;;;;;58.85;3.00;;;;;;;;;;4995139;28;20212;-66
2021/11/27 05:05:51;;;;;;;59.60;3.08;;;;;;;;;;4994842;28;20680;-66
2021/11/27 05:08:18;;;;;;;59.20;2.90;;;;;;;;;;4994356;28;20242;-65
2021/11/27 05:10:45;;;;;;;58.75;3.40;;;;;;;;;;4994833;28;20218;-66
2021/11/27 05:13:14;;;;;;;58.70;2.85;;;;;;;;;;4994741;28;20203;-66
2021/11/27 05:15:41;;;;;;;58.97;3.30;;;;;;;;;;4994614;28;20218;-66
2021/11/27 05:18:08;;;;;;;59.65;3.30;;;;;;;;;;4994268;28;20231;-66
2021/11/27 05:20:35;;;;;;;59.00;3.30;;;;;;;;;;4994602;28;20211;-66
2021/11/27 05:23:02;;;;;;;59.85;3.10;;;;;;;;;;4994557;28;20672;-66
2021/11/27 05:25:30;;;;;;;58.10;2.80;;;;;;;;;;4994351;28;20215;-66
2021/11/27 05:27:57;;;;;;;68.63;3.00;;;;;;;;;;4994360;28;20228;-65
2021/11/27 05:30:27;;;;;;;59.22;2.90;;;;;;;;;;4994342;28;20291;-66
2021/11/27 05:33:07;;;;;;;58.95;3.15;;;;;;;;;;4994388;28;20302;-66
2021/11/27 05:35:35;;;;;;;58.70;2.80;;;;;;;;;;4994220;28;20211;-66
2021/11/27 05:38:02;;;;;;;58.28;2.97;;;;;;;;;;4993990;28;20660;-66
2021/11/27 05:40:29;;;;;;;58.90;2.92;;;;;;;;;;4993306;28;20216;-65
2021/11/27 05:42:56;;;;;;;57.95;2.60;;;;;;;;;;4994211;28;20208;-66
2021/11/27 05:45:28;;;;;;;58.20;2.80;;;;;;;;;;4994135;28;20214;-66
2021/11/27 05:47:56;;;;;;;58.47;2.80;;;;;;;;;;4993728;28;20232;-66
2021/11/27 05:50:23;;;;;;;58.38;3.00;;;;;;;;;;4993926;28;20212;-66
2021/11/27 05:52:51;;;;;;;58.38;2.58;;;;;;;;;;4994525;28;20214;-66
2021/11/27 05:55:18;;;;;;;58.75;2.55;;;;;;;;;;4994009;28;20262;-66
2021/11/27 05:57:45;;;;;;;58.20;2.80;;;;;;;;;;4993770;28;20354;-66
2021/11/27 06:00:13;;;;;;;58.10;2.80;;;;;;;;;;4993757;28;20229;-66
2021/11/27 06:02:41;;;;;;;58.10;2.65;;;;;;;;;;4994074;28;20207;-66
2021/11/27 06:05:09;;;;;;;59.33;3.28;;;;;;;;;;4993646;28;20207;-66
2021/11/27 06:07:36;;;;;;;58.90;2.80;;;;;;;;;;4993489;28;20209;-66
2021/11/27 06:10:03;;;;;;;58.08;2.80;;;;;;;;;;4993672;28;20204;-66
2021/11/27 06:12:30;;;;;;;58.67;2.60;;;;;;;;;;4993703;28;20580;-66
2021/11/27 06:14:57;;;;;;;58.38;3.00;;;;;;;;;;4993339;28;20208;-66
2021/11/27 06:17:25;;;;;;;59.38;2.90;;;;;;;;;;4993124;28;20613;-66
2021/11/27 06:19:53;;;;;;;58.50;3.00;;;;;;;;;;4993715;28;20255;-66
2021/11/27 06:22:22;;;;;;;58.30;2.47;;;;;;;;;;4993511;28;20218;-66
2021/11/27 06:24:49;;;;;;;58.67;2.85;;;;;;;;;;4993859;28;20817;-66
2021/11/27 06:27:16;;;;;;;58.38;3.00;;;;;;;;;;4992992;28;20207;-66
2021/11/27 06:29:43;;;;;;;58.60;3.00;;;;;;;;;;4993445;28;20234;-66
2021/11/27 06:32:11;;;;;;;60.42;3.10;;;;;;;;;;4993473;28;20210;-65
2021/11/27 06:34:39;;;;;;;58.20;2.70;;;;;;;;;;4993120;28;20742;-66
2021/11/27 06:37:07;;;;;;;58.47;2.70;;;;;;;;;;4993119;28;20224;-66
2021/11/27 06:39:35;;;;;;;59.08;3.20;;;;;;;;;;4993018;28;20227;-66
2021/11/27 06:42:03;;;;;;;58.67;3.00;;;;;;;;;;4993327;28;20718;-66
2021/11/27 06:44:30;;;;;;;58.55;2.97;;;;;;;;;;4993238;28;20204;-66
2021/11/27 06:46:57;;;;;;;59.28;2.92;;;;;;;;;;4993085;28;20215;-66
2021/11/27 06:49:25;;;;;;;58.83;3.35;;;;;;;;;;4992622;28;20238;-65
2021/11/27 06:51:52;;;;;;;58.40;3.10;;;;;;;;;;4992819;28;20298;-66
2021/11/27 06:54:20;;;;;;;58.20;2.55;;;;;;;;;;4992868;28;20208;-65
2021/11/27 06:56:47;;;;;;;58.30;2.70;;;;;;;;;;4992993;28;20557;-66
2021/11/27 06:59:14;;;;;;;58.45;2.95;;;;;;;;;;4992547;28;20227;-66
2021/11/27 07:01:41;;;;;;;58.58;2.90;;;;;;;;;;4992858;28;20710;-65
2021/11/27 07:04:09;;;;;;;59.63;2.83;;;;;;;;;;4992800;28;20753;-66
2021/11/27 07:06:36;;;;;;;57.95;2.78;;;;;;;;;;4992709;28;20211;-66
2021/11/27 07:09:03;;;;;;;58.17;2.90;;;;;;;;;;4992300;28;20730;-66
2021/11/27 07:11:31;;;;;;;58.45;3.10;;;;;;;;;;4992656;28;20695;-66
2021/11/27 07:13:58;;;;;;;59.72;3.13;;;;;;;;;;4992776;28;20214;-66
2021/11/27 07:16:26;;;;;;;58.53;3.05;;;;;;;;;;4992544;28;20317;-65
2021/11/27 07:18:53;;;;;;;62.45;3.10;;;;;;;;;;4992211;28;20242;-65
2021/11/27 07:21:20;;;;;;;58.63;3.22;;;;;;;;;;4992460;28;20215;-66
2021/11/27 07:23:47;;;;;;;58.38;2.88;;;;;;;;;;4992712;28;20207;-66
2021/11/27 07:26:14;;;;;;;58.58;3.08;;;;;;;;;;4992768;28;20204;-66
2021/11/27 07:28:43;;;;;;;58.58;2.92;;;;;;;;;;4992396;28;20226;-66
2021/11/27 07:31:11;;;;;;;58.65;3.17;;;;;;;;;;4992745;28;20211;-65
2021/11/27 07:33:38;;;;;;;58.17;2.80;;;;;;;;;;4992462;28;20213;-66
2021/11/27 07:36:06;;;;;;;58.63;3.20;;;;;;;;;;4992461;28;20211;-66
2021/11/27 07:38:33;;;;;;;58.55;3.05;;;;;;;;;;4992198;28;20237;-65
2021/11/27 07:41:01;;;;;;;59.38;3.42;;;;;;;;;;4992657;28;20208;-66
2021/11/27 07:43:28;;;;;;;58.65;2.92;;;;;;;;;;4992444;28;20207;-66
2021/11/27 07:45:57;;;;;;;58.05;2.90;;;;;;;;;;4992831;28;20274;-66
2021/11/27 07:48:27;;;;;;;58.47;3.30;;;;;;;;;;4991935;28;20220;-66
2021/11/27 07:50:54;;;;;;;58.33;2.90;;;;;;;;;;4992585;28;20208;-65
2021/11/27 07:53:21;;;;;;;58.30;3.10;;;;;;;;;;4992458;28;20203;-66
2021/11/27 07:55:48;;;;;;;60.45;3.95;;;;;;;;;;4992357;28;20210;-65
2021/11/27 07:58:15;;;;;;;58.25;2.88;;;;;;;;;;4991882;28;20606;-66
2021/11/27 08:00:43;;;;;;;64.32;3.45;;;;;;;;;;4992187;28;20214;-66
2021/11/27 08:03:11;;;;;;;58.45;3.05;;;;;;;;;;4993849;28;20208;-66
2021/11/27 08:05:38;;;;;;;58.25;2.90;;;;;;;;;;4996127;28;20210;-66
2021/11/27 08:08:06;;;;;;;58.88;2.88;;;;;;;;;;4995967;28;20227;-66
2021/11/27 08:10:33;;;;;;;58.30;3.00;;;;;;;;;;4995957;28;20216;-66
2021/11/27 08:13:00;;;;;;;58.88;3.50;;;;;;;;;;4995876;28;20210;-66
2021/11/27 08:15:27;;;;;;;58.20;3.20;;;;;;;;;;4995603;28;20207;-65
2021/11/27 08:17:54;;;;;;;58.92;3.15;;;;;;;;;;4995619;28;20650;-66
2021/11/27 08:20:23;;;;;;;58.58;2.88;;;;;;;;;;4995678;28;20684;-66
2021/11/27 08:22:50;;;;;;;59.33;3.50;;;;;;;;;;4995833;28;20696;-66
2021/11/27 08:25:17;;;;;;;59.15;3.17;;;;;;;;;;4995502;28;20211;-66
2021/11/27 08:27:44;;;;;;;58.67;3.30;;;;;;;;;;4995386;28;20287;-66
2021/11/27 08:30:12;;;;;;;58.00;2.58;;;;;;;;;;4995383;28;20208;-66
2021/11/27 08:32:40;;;;;;;58.60;2.50;;;;;;;;;;4995879;28;20203;-66
2021/11/27 08:35:07;;;;;;;59.63;3.10;;;;;;;;;;4995560;28;20557;-66
2021/11/27 08:37:36;;;;;;;59.63;2.90;;;;;;;;;;4995179;28;20207;-66
2021/11/27 08:40:06;;;;;;;58.22;2.70;;;;;;;;;;4995460;28;20204;-66
2021/11/27 08:42:33;;;;;;;59.00;2.90;;;;;;;;;;4995433;28;20222;-66
2021/11/27 08:45:00;;;;;;;61.17;3.92;;;;;;;;;;4995659;28;20208;-66
2021/11/27 08:47:28;;;;;;;58.25;2.70;;;;;;;;;;4995085;28;20209;-66
2021/11/27 08:49:56;;;;;;;59.10;2.70;;;;;;;;;;4995243;28;20224;-66
2021/11/27 08:52:23;;;;;;;58.50;3.00;;;;;;;;;;4995263;28;20646;-66
2021/11/27 08:54:51;;;;;;;58.78;2.90;;;;;;;;;;4995110;28;20207;-66
2021/11/27 08:57:19;;;;;;;58.58;2.95;;;;;;;;;;4994898;28;20204;-67
2021/11/27 08:59:46;;;;;;;58.75;3.00;;;;;;;;;;4995102;28;20257;-66
2021/11/27 09:02:13;;;;;;;58.17;2.97;;;;;;;;;;4995131;28;20594;-66
2021/11/27 09:04:40;;;;;;;59.33;3.15;;;;;;;;;;4994934;28;20562;-66
2021/11/27 09:07:07;;;;;;;58.92;3.15;;;;;;;;;;4994858;28;20211;-66
2021/11/27 09:09:35;;;;;;;58.70;3.00;;;;;;;;;;4994709;28;20230;-66
2021/11/27 09:12:04;;;;;;;58.42;3.00;;;;;;;;;;4994775;28;20350;-67
2021/11/27 09:14:32;;;;;;;64.57;3.15;;;;;;;;;;4994843;28;20309;-66
2021/11/27 09:16:59;;;;;;;58.40;2.92;;;;;;;;;;4994753;28;20203;-66
2021/11/27 09:19:26;;;;;;;58.45;2.65;;;;;;;;;;4994398;28;20237;-67
2021/11/27 09:21:53;;;;;;;59.45;3.05;;;;;;;;;;4994621;28;20590;-66
2021/11/27 09:24:20;;;;;;;58.35;2.80;;;;;;;;;;4994372;28;20204;-67
2021/11/27 09:26:48;;;;;;;58.50;2.60;;;;;;;;;;4994515;28;20208;-66
2021/11/27 09:29:18;;;;;;;58.97;3.00;;;;;;;;;;4994133;28;20220;-66
2021/11/27 09:31:45;;;;;;;59.30;2.83;;;;;;;;;;4994538;28;20223;-65
2021/11/27 09:34:13;;;;;;;58.30;2.90;;;;;;;;;;4994519;28;20215;-66
2021/11/27 09:36:40;;;;;;;58.30;3.17;;;;;;;;;;4994257;28;20204;-67
2021/11/27 09:39:09;;;;;;;59.47;3.45;;;;;;;;;;4993787;28;20606;-67
2021/11/27 09:41:38;;;;;;;58.90;3.35;;;;;;;;;;4994186;28;20266;-67
2021/11/27 09:44:07;;;;;;;58.20;3.05;;;;;;;;;;4994402;28;20298;-66
2021/11/27 09:46:36;;;;;;;58.35;3.08;;;;;;;;;;4994588;28;20666;-66
2021/11/27 09:49:04;;;;;;;60.47;3.17;;;;;;;;;;4993708;28;20220;-67
2021/11/27 09:51:33;;;;;;;62.03;3.60;;;;;;;;;;4993979;28;20219;-66
2021/11/27 09:54:01;;;;;;;63.35;3.67;;;;;;;;;;4994178;28;20203;-67
2021/11/27 09:56:29;;;;;;;59.47;3.47;;;;;;;;;;4993889;28;20698;-66
2021/11/27 09:58:56;;;;;;;62.90;3.80;;;;;;;;;;4993438;28;20230;-66
2021/11/27 10:01:27;;;;;;;58.70;3.47;;;;;;;;;;4993984;28;20214;-67
2021/11/27 10:04:02;;;;;;;58.65;3.30;;;;;;;;;;4993763;28;20215;-66
2021/11/27 10:06:30;;;;;;;59.05;3.28;;;;;;;;;;4994109;28;20214;-67
2021/11/27 10:08:58;;;;;;;58.88;3.38;;;;;;;;;;4993785;28;20234;-67
2021/11/27 10:11:25;;;;;;;61.17;3.63;;;;;;;;;;4993784;28;20695;-67
2021/11/27 10:13:52;;;;;;;59.65;4.00;;;;;;;;;;4993670;28;20696;-67
2021/11/27 10:16:19;;;;;;;59.42;3.55;;;;;;;;;;4993448;28;20673;-67
2021/11/27 10:21:40;;;;;;;60.42;3.00;;;;;;;;;;5089574;27;20568;-64
2021/11/27 10:24:17;;;;;;;58.55;3.00;;;;;;;;;;5089297;28;20786;-65
2021/11/27 10:26:46;;;;;;;58.28;3.10;;;;;;;;;;5089176;28;20558;-65
2021/11/27 10:29:14;;;;;;;58.70;3.00;;;;;;;;;;5088866;28;20736;-65
2021/11/27 10:31:42;;;;;;;58.80;2.93;;;;;;;;;;5089520;28;20471;-65
2021/11/27 10:34:09;;;;;;;57.93;2.93;;;;;;;;;;5089171;28;20448;-65
2021/11/27 10:36:36;;;;;;;58.57;2.83;;;;;;;;;;5089041;28;20454;-65
2021/11/27 10:39:09;;;;;;;60.77;3.27;;;;;;;;;;5088825;28;20477;-65
2021/11/27 10:41:37;;;;;;;59.10;2.93;;;;;;;;;;5088912;28;20996;-65
2021/11/27 10:44:05;;;;;;;58.30;2.93;;;;;;;;;;5089150;28;20461;-65
2021/11/27 10:46:33;;;;;;;58.10;2.70;;;;;;;;;;5088886;28;20450;-65
2021/11/27 10:49:00;;;;;;;59.10;3.00;;;;;;;;;;5088941;28;20470;-65
2021/11/27 10:51:28;;;;;;;58.67;2.80;;;;;;;;;;5088902;28;20449;-64
2021/11/27 10:53:57;;;;;;;58.87;3.00;;;;;;;;;;5088635;28;20457;-65
2021/11/27 10:56:39;;;;;;;58.80;2.90;;;;;;;;;;5088647;28;20445;-65
2021/11/27 10:59:07;;;;;;;58.77;3.10;;;;;;;;;;5088536;28;20465;-65
2021/11/27 11:01:54;;;;;;;58.20;2.57;;;;;;;;;;5088564;28;20481;-65
2021/11/27 11:04:21;;;;;;;58.37;2.90;;;;;;;;;;5088338;28;20459;-65
2021/11/27 11:06:48;;;;;;;61.47;3.27;;;;;;;;;;5088624;28;20450;-64
2021/11/27 11:09:16;;;;;;;58.97;3.20;;;;;;;;;;5088356;28;20815;-65
2021/11/27 11:11:46;;;;;;;59.00;3.00;;;;;;;;;;5088474;28;20484;-65
2021/11/27 11:14:25;;;;;;;58.28;3.00;;;;;;;;;;5088562;28;20278;-64
2021/11/27 11:16:56;;;;;;;58.90;2.90;;;;;;;;;;5088219;28;20299;-64
2021/11/27 11:19:23;;;;;;;58.40;2.80;;;;;;;;;;5087926;28;20220;-64
2021/11/27 11:22:09;;;;;;;59.83;3.15;;;;;;;;;;5088213;28;20757;-65
2021/11/27 11:24:37;;;;;;;61.20;3.05;;;;;;;;;;5088296;28;20205;-65
2021/11/27 11:27:08;;;;;;;58.22;2.75;;;;;;;;;;5088057;28;20208;-65
2021/11/27 11:29:54;;;;;;;58.80;3.00;;;;;;;;;;5088307;28;20228;-65
2021/11/27 11:32:22;;;;;;;58.38;3.10;;;;;;;;;;5078478;28;20648;-65
2021/11/27 11:34:50;;;;;;;58.28;2.80;;;;;;;;;;5074569;28;20212;-65
2021/11/27 11:37:18;;;;;;;59.15;2.80;;;;;;;;;;5074220;28;20206;-65
2021/11/27 11:39:45;;;;;;;57.88;2.70;;;;;;;;;;5074245;28;20231;-65
2021/11/27 11:42:13;;;;;;;59.40;2.90;;;;;;;;;;5074354;28;20215;-65
2021/11/27 11:44:41;;;;;;;58.35;3.05;;;;;;;;;;5074444;28;20205;-65
2021/11/27 11:47:09;;;;;;;58.90;3.00;;;;;;;;;;5074252;28;20208;-65
2021/11/27 11:49:37;;;;;;;58.47;2.50;;;;;;;;;;5074213;28;20232;-64
2021/11/27 11:52:08;;;;;;;58.30;3.13;;;;;;;;;;5074190;28;20201;-65
2021/11/27 11:54:36;;;;;;;58.20;2.60;;;;;;;;;;5074439;28;20213;-64
2021/11/27 11:57:04;;;;;;;58.75;2.80;;;;;;;;;;5074221;28;20204;-65
2021/11/27 11:59:34;;;;;;;59.50;3.10;;;;;;;;;;5073809;28;20236;-65
2021/11/27 12:02:12;;;;;;;59.83;2.80;;;;;;;;;;5073972;28;20259;-65
2021/11/27 12:04:39;;;;;;;57.88;2.60;;;;;;;;;;5073808;28;20205;-64
2021/11/27 12:07:10;;;;;;;60.28;3.08;;;;;;;;;;5074138;28;20205;-65
2021/11/27 12:10:06;;;;;;;58.30;2.80;;;;;;;;;;5073991;28;20229;-64
2021/11/27 12:12:33;;;;;;;58.38;3.03;;;;;;;;;;5073778;28;20691;-64
2021/11/27 12:15:02;;;;;;;58.88;2.90;;;;;;;;;;5073698;28;20208;-65
2021/11/27 12:17:30;;;;;;;58.35;2.90;;;;;;;;;;5073741;28;20205;-65
2021/11/27 12:19:58;;;;;;;58.50;2.90;;;;;;;;;;5073789;28;20229;-65
2021/11/27 12:22:38;;;;;;;58.58;3.10;;;;;;;;;;5073592;28;20669;-64
2021/11/27 12:25:08;;;;;;;58.08;2.80;;;;;;;;;;5073609;28;20205;-65
2021/11/27 12:27:36;;;;;;;58.10;2.92;;;;;;;;;;5073139;28;20200;-65
2021/11/27 12:30:06;;;;;;;58.25;2.75;;;;;;;;;;5073746;28;20213;-65
2021/11/27 12:32:36;;;;;;;58.58;2.95;;;;;;;;;;5073423;28;20238;-65
2021/11/27 12:35:04;;;;;;;58.50;2.53;;;;;;;;;;5073378;28;20250;-65
2021/11/27 12:37:33;;;;;;;58.35;3.10;;;;;;;;;;5073280;28;20204;-66
2021/11/27 12:40:00;;;;;;;58.70;2.97;;;;;;;;;;5073023;28;20229;-65
2021/11/27 12:42:31;;;;;;;57.97;2.38;;;;;;;;;;5072948;28;20212;-65
2021/11/27 12:44:58;;;;;;;58.17;2.47;;;;;;;;;;5072700;28;20590;-65
2021/11/27 12:47:37;;;;;;;58.20;2.45;;;;;;;;;;5073038;28;20216;-65
2021/11/27 12:50:08;;;;;;;58.28;2.60;;;;;;;;;;5073169;28;20201;-65
2021/11/27 12:52:38;;;;;;;57.90;2.78;;;;;;;;;;5072965;28;20213;-65
2021/11/27 12:55:23;;;;;;;58.47;2.88;;;;;;;;;;5073016;28;20211;-65
2021/11/27 12:57:51;;;;;;;60.88;3.05;;;;;;;;;;5072527;28;20215;-65
2021/11/27 13:00:21;;;;;;;57.95;2.70;;;;;;;;;;5072847;28;20205;-65
2021/11/27 13:02:52;;;;;;;58.47;2.90;;;;;;;;;;5072867;28;20208;-65
2021/11/27 13:05:19;;;;;;;59.58;2.97;;;;;;;;;;5072743;28;20205;-65
2021/11/27 13:07:46;;;;;;;57.85;2.42;;;;;;;;;;5072623;28;20205;-64
2021/11/27 13:10:14;;;;;;;59.13;3.13;;;;;;;;;;5072750;28;20205;-65
2021/11/27 13:12:53;;;;;;;59.80;3.22;;;;;;;;;;5072800;28;20644;-65
2021/11/27 13:15:21;;;;;;;59.20;3.30;;;;;;;;;;5072619;28;20205;-65
2021/11/27 13:18:03;;;;;;;61.97;5.05;;;;;;;;;;5072242;28;20201;-65
2021/11/27 13:20:41;;;;;;;65.03;6.07;;;;;;;;;;5072368;28;20722;-65
2021/11/27 13:23:08;;;;;;;58.95;3.20;;;;;;;;;;5072548;28;20231;-65
2021/11/27 13:25:38;;;;;;;59.13;3.40;;;;;;;;;;5072328;28;20205;-65
2021/11/27 13:28:05;;;;;;;58.53;3.10;;;;;;;;;;5071905;28;20724;-65
2021/11/27 13:30:38;;;;;;;58.60;3.60;;;;;;;;;;5072370;28;20237;-65
2021/11/27 13:33:05;;;;;;;63.28;3.50;;;;;;;;;;5072550;28;20677;-65
2021/11/27 13:35:36;;;;;;;59.13;3.45;;;;;;;;;;5072337;28;20220;-65
2021/11/27 13:38:06;;;;;;;58.65;3.20;;;;;;;;;;5071939;28;20229;-65
2021/11/27 13:40:34;;;;;;;58.83;3.35;;;;;;;;;;5072569;28;20569;-67
2021/11/27 13:43:04;;;;;;;58.28;3.63;;;;;;;;;;5072384;28;20811;-65
2021/11/27 13:45:31;;;;;;;58.22;3.45;;;;;;;;;;5072550;28;20205;-65
2021/11/27 13:47:59;;;;;;;58.67;3.78;;;;;;;;;;5071906;28;20225;-65
2021/11/27 13:50:26;;;;;;;59.20;4.10;;;;;;;;;;5072121;28;20211;-66
2021/11/27 13:52:53;;;;;;;58.40;3.50;;;;;;;;;;5071966;28;20213;-66
2021/11/27 13:55:23;;;;;;;58.90;3.72;;;;;;;;;;5071555;28;20231;-67
2021/11/27 13:57:51;;;;;;;58.15;3.30;;;;;;;;;;5071877;28;20201;-68
2021/11/27 14:00:19;;;;;;;59.22;3.65;;;;;;;;;;5072137;28;20636;-66
2021/11/27 14:02:46;;;;;;;59.53;3.50;;;;;;;;;;5071987;28;20217;-65
2021/11/27 14:05:13;;;;;;;60.85;3.70;;;;;;;;;;5071896;28;20200;-66
2021/11/27 14:07:42;;;;;;;58.85;3.30;;;;;;;;;;5071401;28;20209;-66
2021/11/27 14:10:13;;;;;;;58.70;3.30;;;;;;;;;;5071825;28;20706;-66
2021/11/27 14:12:42;;;;;;;59.30;3.80;;;;;;;;;;5072068;28;20205;-66
2021/11/27 14:15:11;;;;;;;60.08;3.40;;;;;;;;;;5071807;28;20212;-66
2021/11/27 14:17:39;;;;;;;59.58;4.20;;;;;;;;;;5071498;28;20212;-66
2021/11/27 14:20:13;;;;;;;60.75;5.13;;;;;;;;;;5071822;28;20216;-66
2021/11/27 14:22:48;;;;;;;59.15;3.75;;;;;;;;;;5071878;28;20224;-66
2021/11/27 14:25:16;;;;;;;58.67;3.40;;;;;;;;;;5071832;28;20205;-66
2021/11/27 14:27:51;;;;;;;62.20;5.53;;;;;;;;;;5071429;28;20207;-66
2021/11/27 14:30:20;;;;;;;68.32;14.52;;;;;;;;;;5071701;28;20242;-65
2021/11/27 14:32:47;;;;;;;59.92;5.00;;;;;;;;;;5071581;28;20204;-66
2021/11/27 14:35:30;;;;;;;58.67;3.80;;;;;;;;;;5071532;28;20208;-66
2021/11/27 14:37:57;;;;;;;58.97;3.97;;;;;;;;;;5071330;28;20227;-66
2021/11/27 14:40:25;;;;;;;59.00;3.90;;;;;;;;;;5071644;28;20209;-65